createdAt,value
2023-01-15T00:00:15.259Z,98857.90
2023-01-15T00:02:46.820Z,98834.30
2023-01-15T00:05:19.264Z,98813.20
2023-01-15T00:07:49.351Z,98789.11
2023-01-15T00:10:17.663Z,98772.79
2023-01-15T00:12:48.885Z,98754.19
2023-01-15T00:15:19.265Z,98738.50
2023-01-15T00:17:47.554Z,98724.04
2023-01-15T00:20:15.700Z,98713.27
2023-01-15T00:22:50.934Z,98697.50
2023-01-15T00:25:37.409Z,98680.48
2023-01-15T00:28:05.388Z,98655.66
2023-01-15T00:30:46.129Z,98649.95
2023-01-15T00:33:16.585Z,98627.67
2023-01-15T00:35:45.127Z,98622.75
2023-01-15T00:38:14.684Z,98610.17
2023-01-15T00:40:46.121Z,98603.14
2023-01-15T00:43:18.164Z,98591.72
2023-01-15T00:45:46.496Z,98583.48
2023-01-15T00:48:13.820Z,98582.72
2023-01-15T00:50:40.861Z,98576.34
2023-01-15T00:53:08.322Z,98574.56
2023-01-15T00:55:35.481Z,98566.36
2023-01-15T00:58:02.803Z,98559.36
2023-01-15T01:00:31.290Z,98551.27
2023-01-15T01:03:00.138Z,98542.88
2023-01-15T01:05:32.903Z,98534.64
2023-01-15T01:08:05.871Z,98528.01
2023-01-15T01:10:35.347Z,98524.95
2023-01-15T01:13:05.648Z,98521.05
2023-01-15T01:15:35.374Z,98510.92
2023-01-15T01:18:03.732Z,98507.05
2023-01-15T01:20:35.792Z,98500.73
2023-01-15T01:23:13.354Z,98493.38
2023-01-15T01:25:47.844Z,98480.61
2023-01-15T01:28:16.191Z,98486.46
2023-01-15T01:30:50.790Z,98485.09
2023-01-15T01:33:23.323Z,98478.76
2023-01-15T01:36:02.420Z,98467.06
2023-01-15T01:38:36.857Z,98465.08
2023-01-15T01:41:08.234Z,98468.67
2023-01-15T01:44:07.475Z,98466.48
2023-01-15T01:46:37.908Z,98449.98
2023-01-15T01:49:30.210Z,98462.05
2023-01-15T01:52:14.035Z,98440.45
2023-01-15T01:54:42.144Z,98448.41
2023-01-15T01:57:10.857Z,98447.70
2023-01-15T01:59:49.359Z,98437.03
2023-01-15T02:02:24.823Z,98433.80
2023-01-15T02:04:52.211Z,98433.67
2023-01-15T02:07:19.641Z,98430.19
2023-01-15T02:09:52.507Z,98432.36
2023-01-15T02:12:24.768Z,98425.77
2023-01-15T02:15:11.222Z,98420.80
2023-01-15T02:18:01.658Z,98412.25
2023-01-15T02:20:52.781Z,98405.73
2023-01-15T02:24:11.873Z,98406.43
2023-01-15T02:27:22.534Z,98395.63
2023-01-15T02:30:31.177Z,98386.84
2023-01-15T02:33:25.487Z,98383.43
2023-01-15T06:26:54.579Z,99128.11
2023-01-15T06:29:22.073Z,99139.13
2023-01-15T06:31:49.809Z,99150.89
2023-01-15T06:34:20.226Z,99152.55
2023-01-15T06:36:47.946Z,99152.46
2023-01-15T06:39:15.375Z,99156.16
2023-01-15T06:42:01.281Z,99157.88
2023-01-15T06:44:47.543Z,99149.29
2023-01-15T06:47:23.896Z,99136.04
2023-01-15T06:49:56.329Z,99126.44
2023-01-15T06:52:27.931Z,99108.16
2023-01-15T06:54:55.461Z,99087.66
2023-01-15T06:57:23.051Z,99069.81
2023-01-15T06:59:50.472Z,99050.02
2023-01-15T07:02:18.603Z,99036.58
2023-01-15T07:04:48.179Z,99012.06
2023-01-15T07:07:19.009Z,98993.30
2023-01-15T07:09:46.381Z,98969.73
2023-01-15T07:12:14.157Z,98955.62
2023-01-15T07:14:41.883Z,98935.70
2023-01-15T07:17:09.546Z,98916.33
2023-01-15T07:19:37.191Z,98884.02
2023-01-15T07:22:06.855Z,98848.81
2023-01-15T07:24:34.288Z,98813.85
2023-01-15T07:27:01.685Z,98769.34
2023-01-15T07:29:30.795Z,98720.45
2023-01-15T07:31:58.947Z,98668.77
2023-01-15T07:34:26.285Z,98621.31
2023-01-15T07:36:53.694Z,98574.38
2023-01-15T07:39:21.193Z,98526.52
2023-01-15T07:42:07.176Z,98476.89
2023-01-15T07:44:54.258Z,98421.61
2023-01-15T07:47:44.480Z,98380.34
2023-01-15T07:50:22.771Z,98343.16
2023-01-15T07:52:52.895Z,98317.35
2023-01-15T07:55:20.992Z,98293.15
2023-01-15T07:57:48.538Z,98272.13
2023-01-15T08:00:20.168Z,98247.40
2023-01-15T08:02:51.246Z,98226.09
2023-01-15T08:05:19.192Z,98205.88
2023-01-15T08:07:46.962Z,98187.78
2023-01-15T08:10:14.301Z,98170.90
2023-01-15T08:13:00.292Z,98151.92
2023-01-15T08:15:38.871Z,98114.61
2023-01-15T08:18:07.486Z,98098.82
2023-01-15T08:20:35.209Z,98088.90
2023-01-15T08:23:02.579Z,98071.77
2023-01-15T08:25:30.031Z,98059.30
2023-01-15T08:28:01.599Z,98042.13
2023-01-15T08:30:28.877Z,98028.26
2023-01-15T08:33:00.971Z,98021.07
2023-01-15T08:35:28.524Z,98007.42
2023-01-15T08:37:55.950Z,98003.71
2023-01-15T08:40:23.540Z,97992.81
2023-01-15T08:42:51.072Z,97982.75
2023-01-15T08:45:18.398Z,97975.35
2023-01-15T08:47:45.753Z,97964.91
2023-01-15T08:50:13.302Z,97955.61
2023-01-15T08:52:40.744Z,97944.23
2023-01-15T08:55:08.526Z,97936.65
2023-01-15T08:57:36.178Z,97931.11
2023-01-15T09:00:04.255Z,97927.52
2023-01-15T09:02:31.523Z,97916.27
2023-01-15T09:04:59.242Z,97910.96
2023-01-15T09:07:27.753Z,97899.23
2023-01-15T09:09:55.162Z,97895.85
2023-01-15T09:12:25.276Z,97895.59
2023-01-15T09:14:56.866Z,97890.73
2023-01-15T09:17:29.923Z,97880.69
2023-01-15T09:19:57.175Z,97880.80
2023-01-15T09:22:25.644Z,97876.56
2023-01-15T09:24:53.244Z,97868.57
2023-01-15T09:27:20.520Z,97868.31
2023-01-15T09:29:47.916Z,97870.36
2023-01-15T09:32:15.365Z,97865.14
2023-01-15T09:34:42.861Z,97861.84
2023-01-15T09:37:10.616Z,97854.17
2023-01-15T09:39:38.742Z,97852.15
2023-01-15T09:42:18.438Z,97844.91
2023-01-15T09:45:07.834Z,97837.70
2023-01-15T09:47:54.790Z,97836.40
2023-01-15T09:50:36.410Z,97829.89
2023-01-15T09:53:37.002Z,97833.11
2023-01-15T09:56:04.937Z,97820.66
2023-01-15T09:58:39.753Z,97837.02
2023-01-15T10:01:07.677Z,97835.79
2023-01-15T10:03:47.221Z,97836.23
2023-01-15T10:06:26.233Z,97832.23
2023-01-15T10:09:06.733Z,97840.23
2023-01-15T10:12:04.905Z,97839.64
2023-01-15T10:14:32.244Z,97833.39
2023-01-15T10:16:59.606Z,97848.12
2023-01-15T10:19:37.113Z,97848.72
2023-01-15T10:22:22.367Z,97828.48
2023-01-15T10:24:56.720Z,97828.20
2023-01-15T10:27:26.374Z,97824.55
2023-01-15T10:29:57.814Z,97830.35
2023-01-15T10:32:39.029Z,97826.92
2023-01-15T10:35:32.936Z,97819.59
2023-01-15T10:38:26.955Z,97809.56
2023-01-15T10:40:54.258Z,97807.70
2023-01-15T10:43:46.928Z,97819.18
2023-01-15T10:46:17.114Z,97810.07
2023-01-15T10:48:57.410Z,97818.79
2023-01-15T10:51:45.719Z,97819.55
2023-01-15T10:54:30.326Z,97816.89
2023-01-15T10:57:15.890Z,97817.56
2023-01-15T10:59:57.720Z,97825.70
2023-01-15T11:02:43.296Z,97824.40
2023-01-15T11:05:17.030Z,97824.65
2023-01-15T11:08:26.311Z,97834.43
2023-01-15T11:10:41.388Z,97834.38
2023-01-15T11:13:43.564Z,97850.03
2023-01-15T11:16:47.881Z,97840.61
2023-01-15T11:19:41.729Z,97831.98
2023-01-15T11:22:09.891Z,97838.95
2023-01-15T11:24:50.701Z,97854.55
2023-01-15T11:27:30.295Z,97852.88
2023-01-15T11:30:02.071Z,97860.70
2023-01-15T11:32:35.214Z,97859.67
2023-01-15T11:35:15.532Z,97867.85
2023-01-15T11:37:43.006Z,97874.35
2023-01-15T11:40:23.754Z,97883.65
2023-01-15T11:43:10.289Z,97880.72
2023-01-15T11:46:07.666Z,97878.05
2023-01-15T11:49:02.160Z,97878.56
2023-01-15T11:51:30.947Z,97889.77
2023-01-15T11:54:04.476Z,97910.66
2023-01-15T11:56:32.343Z,97920.24
2023-01-15T11:59:02.892Z,97926.09
2023-01-15T12:01:31.864Z,97930.52
2023-01-15T12:04:01.064Z,97937.23
2023-01-15T12:06:28.355Z,97941.48
2023-01-15T12:09:27.176Z,97952.74
2023-01-15T12:12:06.856Z,97948.67
2023-01-15T12:14:40.351Z,97967.98
2023-01-15T12:17:38.316Z,97979.80
2023-01-15T12:20:25.333Z,97985.31
2023-01-15T12:23:09.921Z,98001.48
2023-01-15T12:25:50.011Z,98010.11
2023-01-15T12:28:35.183Z,98019.79
2023-01-15T12:31:04.144Z,98021.44
2023-01-15T12:33:53.666Z,98034.85
2023-01-15T12:36:26.940Z,98033.00
2023-01-15T12:38:54.197Z,98045.20
2023-01-15T12:41:58.242Z,98060.14
2023-01-15T12:45:01.167Z,98053.29
2023-01-15T13:00:18.538Z,97899.03
2023-01-15T13:02:52.335Z,97806.80
2023-01-15T13:05:22.193Z,97873.08
2023-01-15T13:08:00.697Z,97915.25
2023-01-15T13:10:34.353Z,97943.69
2023-01-15T13:13:26.223Z,97973.88
2023-01-15T13:16:03.419Z,97988.32
2023-01-15T13:19:08.864Z,98013.48
2023-01-15T13:21:36.765Z,98023.45
2023-01-15T13:24:07.508Z,98053.36
2023-01-15T13:26:54.686Z,98067.38
2023-01-15T13:29:45.020Z,98074.20
2023-01-15T13:32:18.486Z,98088.23
2023-01-15T13:34:47.995Z,98104.19
2023-01-15T13:37:18.070Z,98114.98
2023-01-15T13:39:45.580Z,98125.70
2023-01-15T13:42:35.062Z,98129.55
2023-01-15T13:45:41.744Z,98127.89
2023-01-15T13:48:17.951Z,98130.00
2023-01-15T13:50:57.337Z,98153.58
2023-01-15T13:53:38.289Z,98162.75
2023-01-15T13:56:08.642Z,98176.61
2023-01-15T13:58:51.437Z,98189.08
2023-01-15T14:01:21.749Z,98196.23
2023-01-15T14:04:12.041Z,98209.98
2023-01-15T14:06:39.676Z,98205.09
2023-01-15T14:09:14.185Z,98221.92
2023-01-15T14:11:48.087Z,98227.08
2023-01-15T14:14:15.298Z,98233.17
2023-01-15T14:16:52.013Z,98236.60
2023-01-15T18:17:31.928Z,98900.50
2023-01-15T18:19:59.209Z,98920.55
2023-01-15T18:22:26.629Z,98926.46
2023-01-15T18:24:56.573Z,98928.62
2023-01-15T18:27:30.697Z,98931.45
2023-01-15T18:29:59.779Z,98926.87
2023-01-15T18:32:31.149Z,98922.20
2023-01-15T18:34:58.524Z,98923.23
2023-01-15T18:37:25.777Z,98919.77
2023-01-15T18:39:53.212Z,98914.83
2023-01-15T18:42:39.214Z,98905.77
2023-01-15T18:45:25.886Z,98885.79
2023-01-15T18:47:53.202Z,98863.08
2023-01-15T18:50:20.462Z,98851.48
2023-01-15T18:52:50.681Z,98826.83
2023-01-15T18:55:21.864Z,98797.95
2023-01-15T18:57:49.417Z,98776.29
2023-01-15T19:00:18.180Z,98747.39
2023-01-15T19:02:46.244Z,98722.82
2023-01-15T19:05:15.689Z,98695.60
2023-01-15T19:07:44.183Z,98670.00
2023-01-15T19:10:13.026Z,98646.16
2023-01-15T19:12:40.428Z,98619.18
2023-01-15T19:15:26.880Z,98590.90
2023-01-15T19:18:12.922Z,98538.95
2023-01-15T19:20:40.171Z,98487.04
2023-01-15T19:23:07.568Z,98436.16
2023-01-15T19:25:40.640Z,98378.50
2023-01-15T19:28:09.850Z,98311.86
2023-01-15T19:30:38.734Z,98242.59
2023-01-15T19:33:07.016Z,98178.52
2023-01-15T19:35:36.009Z,98117.54
2023-01-15T19:38:08.707Z,98065.00
2023-01-15T19:40:40.796Z,98006.66
2023-01-15T19:43:29.043Z,97966.20
2023-01-15T19:46:16.334Z,97910.36
2023-01-15T19:49:02.174Z,97873.56
2023-01-15T19:51:48.147Z,97835.58
2023-01-15T19:54:35.940Z,97812.13
2023-01-15T19:57:03.173Z,97794.01
2023-01-15T19:59:30.513Z,97788.59
2023-01-15T20:01:57.783Z,97773.06
2023-01-15T20:04:25.032Z,97759.41
2023-01-15T20:06:53.869Z,97752.70
2023-01-15T20:09:21.401Z,97746.00
2023-01-15T20:12:07.495Z,97734.85
2023-01-15T20:14:34.831Z,97716.42
2023-01-15T20:17:02.119Z,97720.13
2023-01-15T20:19:29.440Z,97715.35
2023-01-15T20:21:56.699Z,97700.64
2023-01-15T20:24:23.988Z,97693.30
2023-01-15T20:26:51.286Z,97688.40
2023-01-15T20:29:18.569Z,97685.10
2023-01-15T20:31:46.594Z,97683.15
2023-01-15T20:34:13.929Z,97675.06
2023-01-15T20:36:41.286Z,97670.27
2023-01-15T20:39:08.728Z,97668.58
2023-01-15T20:41:54.661Z,97666.08
2023-01-15T20:44:40.740Z,97651.84
2023-01-15T20:47:27.992Z,97648.73
2023-01-15T20:49:55.388Z,97642.85
2023-01-15T20:52:22.718Z,97653.07
2023-01-15T20:54:50.918Z,97654.17
2023-01-15T20:57:18.219Z,97655.77
2023-01-15T20:59:45.582Z,97657.05
2023-01-15T21:02:12.981Z,97660.45
2023-01-15T21:04:40.280Z,97666.08
2023-01-15T21:07:07.761Z,97668.34
2023-01-15T21:09:35.098Z,97667.05
2023-01-15T21:12:03.670Z,97664.39
2023-01-15T21:14:30.895Z,97669.13
2023-01-15T21:16:58.257Z,97673.67
2023-01-15T21:19:26.332Z,97673.73
2023-01-15T21:21:53.626Z,97671.55
2023-01-15T21:24:20.839Z,97672.33
2023-01-15T21:26:49.088Z,97679.20
2023-01-15T21:29:16.586Z,97686.16
2023-01-15T21:31:44.119Z,97690.94
2023-01-15T21:34:11.665Z,97695.61
2023-01-15T21:36:39.126Z,97697.22
2023-01-15T21:39:06.394Z,97699.79
2023-01-15T21:41:53.221Z,97701.83
2023-01-15T21:44:34.903Z,97693.16
2023-01-15T21:47:04.401Z,97693.35
2023-01-15T21:49:33.674Z,97696.87
2023-01-15T21:52:01.796Z,97697.30
2023-01-15T21:54:29.427Z,97700.08
2023-01-15T21:56:56.789Z,97708.92
2023-01-15T21:59:24.646Z,97717.22
2023-01-15T22:01:58.441Z,97717.98
2023-01-15T22:04:26.961Z,97718.79
2023-01-15T22:06:54.552Z,97731.46
2023-01-15T22:09:21.912Z,97737.58
2023-01-15T22:11:49.665Z,97733.49
2023-01-15T22:14:19.303Z,97736.83
2023-01-15T22:16:46.881Z,97732.36
2023-01-15T22:19:21.236Z,97733.86
2023-01-15T22:21:53.909Z,97735.05
2023-01-15T22:24:21.500Z,97735.08
2023-01-15T22:26:54.984Z,97740.61
2023-01-15T22:29:23.763Z,97733.27
2023-01-15T22:31:51.303Z,97733.48
2023-01-15T22:34:21.541Z,97730.58
2023-01-15T22:36:49.901Z,97727.96
2023-01-15T22:39:17.436Z,97724.58
2023-01-15T22:42:03.683Z,97730.41
2023-01-15T22:44:30.972Z,97723.15
2023-01-15T22:46:58.223Z,97734.39
2023-01-15T22:49:25.431Z,97734.80
2023-01-15T22:51:52.633Z,97748.48
2023-01-15T22:54:19.926Z,97760.09
2023-01-15T22:56:47.464Z,97759.93
2023-01-15T22:59:14.931Z,97769.33
2023-01-15T23:01:42.222Z,97771.77
2023-01-15T23:04:20.391Z,97778.49
2023-01-15T23:06:49.387Z,97773.01
2023-01-15T23:09:16.999Z,97775.20
2023-01-15T23:11:44.266Z,97778.08
2023-01-15T23:14:11.836Z,97779.40
2023-01-15T23:16:39.002Z,97775.95
2023-01-15T23:19:06.483Z,97775.23
2023-01-15T23:21:33.779Z,97775.98
2023-01-15T23:24:01.658Z,97776.42
2023-01-15T23:26:31.684Z,97777.96
2023-01-15T23:28:59.682Z,97773.95
2023-01-15T23:31:27.634Z,97772.80
2023-01-15T23:33:54.898Z,97769.41
2023-01-15T23:36:22.340Z,97773.16
2023-01-15T23:38:49.646Z,97773.74
2023-01-15T23:41:18.707Z,97777.23
2023-01-15T23:44:04.770Z,97778.64
2023-01-15T23:46:35.754Z,97771.00
2023-01-15T23:49:05.791Z,97782.00
2023-01-15T23:51:33.107Z,97781.80
2023-01-15T23:54:00.535Z,97783.33
2023-01-15T23:56:30.394Z,97783.93
2023-01-15T23:58:57.880Z,97780.60
